createdAt,value
2017-12-20T00:00:36.656Z,2.40
2017-12-20T00:03:04.701Z,2.40
2017-12-20T00:05:33.508Z,2.40
2017-12-20T00:08:02.325Z,2.40
2017-12-20T00:10:31.793Z,2.40
2017-12-20T00:13:00.680Z,2.50
2017-12-20T00:15:28.718Z,2.50
2017-12-20T00:17:57.557Z,2.60
2017-12-20T00:20:25.626Z,2.50
2017-12-20T00:22:53.660Z,2.50
2017-12-20T00:25:21.695Z,2.50
2017-12-20T00:27:49.762Z,2.50
2017-12-20T00:30:18.589Z,2.40
2017-12-20T00:32:46.627Z,2.40
2017-12-20T00:35:15.565Z,2.40
2017-12-20T00:37:43.621Z,2.40
2017-12-20T00:40:12.437Z,2.50
2017-12-20T00:42:41.260Z,2.40
2017-12-20T00:45:09.293Z,2.40
2017-12-20T00:47:37.337Z,2.50
2017-12-20T00:50:05.385Z,2.50
2017-12-20T00:52:34.574Z,2.50
2017-12-20T00:55:02.668Z,2.40
2017-12-20T00:57:31.501Z,2.40
2017-12-20T00:59:59.520Z,2.40
2017-12-20T01:02:27.588Z,2.40
2017-12-20T01:04:55.616Z,2.50
2017-12-20T01:07:23.677Z,2.50
2017-12-20T01:09:51.753Z,2.40
2017-12-20T01:12:19.777Z,2.40
2017-12-20T01:14:48.585Z,2.50
2017-12-20T01:17:17.418Z,2.50
2017-12-20T01:19:45.482Z,2.40
2017-12-20T01:22:13.541Z,2.50
2017-12-20T01:24:41.569Z,2.50
2017-12-20T01:27:09.630Z,2.50
2017-12-20T01:29:37.662Z,2.50
2017-12-20T01:32:05.741Z,2.40
2017-12-20T01:34:33.777Z,2.40
2017-12-20T01:37:02.573Z,2.40
2017-12-20T01:39:31.385Z,2.50
2017-12-20T01:41:59.421Z,2.40
2017-12-20T01:44:27.494Z,2.50
2017-12-20T01:46:55.542Z,2.40
2017-12-20T01:49:23.605Z,2.40
2017-12-20T01:51:52.402Z,2.40
2017-12-20T01:54:21.213Z,2.40
2017-12-20T01:56:49.968Z,2.40
2017-12-20T01:59:18.059Z,2.40
2017-12-20T02:01:46.148Z,2.40
2017-12-20T02:04:14.144Z,2.50
2017-12-20T02:06:42.899Z,2.40
2017-12-20T02:09:10.921Z,2.40
2017-12-20T02:11:39.692Z,2.40
2017-12-20T02:14:07.718Z,2.40
2017-12-20T02:16:36.464Z,2.40
2017-12-20T02:19:04.452Z,2.30
2017-12-20T02:21:32.456Z,2.40
2017-12-20T02:24:00.448Z,2.40
2017-12-20T02:26:28.460Z,2.40
2017-12-20T02:28:56.443Z,2.40
2017-12-20T02:31:24.432Z,2.40
2017-12-20T02:33:52.437Z,2.40
2017-12-20T02:36:20.429Z,2.40
2017-12-20T02:38:48.440Z,2.40
2017-12-20T02:41:16.433Z,2.40
2017-12-20T02:43:44.552Z,2.40
2017-12-20T02:46:12.561Z,2.40
2017-12-20T02:48:40.553Z,2.40
2017-12-20T02:51:08.572Z,2.40
2017-12-20T02:53:37.348Z,2.40
2017-12-20T02:56:05.341Z,2.40
2017-12-20T02:58:33.352Z,2.40
2017-12-20T03:01:02.065Z,2.50
2017-12-20T03:03:30.084Z,2.50
2017-12-20T03:05:58.053Z,2.50
2017-12-20T03:08:26.048Z,2.50
2017-12-20T03:10:54.052Z,2.50
2017-12-20T03:13:22.032Z,2.40
2017-12-20T03:15:50.180Z,2.40
2017-12-20T03:18:18.167Z,2.40
2017-12-20T03:20:46.184Z,2.50
2017-12-20T03:23:14.192Z,2.50
2017-12-20T03:25:42.952Z,2.40
2017-12-20T03:28:10.992Z,2.40
2017-12-20T03:30:38.979Z,2.50
2017-12-20T03:33:06.973Z,2.50
2017-12-20T03:35:34.976Z,2.50
2017-12-20T03:38:03.695Z,2.50
2017-12-20T03:40:32.689Z,2.50
2017-12-20T03:43:00.964Z,2.50
2017-12-20T03:45:28.974Z,2.60
2017-12-20T03:47:56.960Z,2.50
2017-12-20T03:50:24.940Z,2.50
2017-12-20T03:52:52.941Z,2.50
2017-12-20T03:55:21.685Z,2.50
2017-12-20T03:57:49.688Z,2.40
2017-12-20T04:00:17.668Z,2.40
2017-12-20T04:02:45.652Z,2.50
2017-12-20T04:05:13.665Z,2.50
2017-12-20T04:07:42.416Z,2.50
2017-12-20T04:10:10.429Z,2.40
2017-12-20T04:12:38.424Z,2.40
2017-12-20T04:15:06.409Z,2.40
2017-12-20T04:17:35.176Z,2.60
2017-12-20T04:20:03.152Z,2.50
2017-12-20T04:22:31.176Z,2.50
2017-12-20T04:24:59.923Z,2.50
2017-12-20T04:27:27.967Z,2.50
2017-12-20T04:29:56.120Z,2.50
2017-12-20T04:32:24.101Z,2.40
2017-12-20T04:34:52.121Z,2.50
2017-12-20T04:37:20.877Z,2.50
2017-12-20T04:39:48.858Z,2.50
2017-12-20T04:42:16.896Z,2.50
2017-12-20T04:44:45.650Z,2.50
2017-12-20T04:47:13.680Z,2.50
2017-12-20T04:49:42.429Z,2.50
2017-12-20T04:52:10.416Z,2.50
2017-12-20T04:54:38.640Z,2.50
2017-12-20T04:57:07.392Z,2.50
2017-12-20T04:59:35.416Z,2.40
2017-12-20T05:02:04.169Z,2.40
2017-12-20T05:04:32.165Z,2.40
2017-12-20T05:07:00.170Z,2.50
2017-12-20T05:09:28.149Z,2.50
2017-12-20T05:11:56.170Z,2.60
2017-12-20T05:14:24.160Z,2.60
2017-12-20T05:16:52.169Z,2.60
2017-12-20T05:19:20.151Z,2.60
2017-12-20T05:21:48.150Z,2.50
2017-12-20T05:24:16.169Z,2.60
2017-12-20T05:26:44.936Z,2.50
2017-12-20T05:29:12.936Z,2.50
2017-12-20T05:31:40.937Z,2.50
2017-12-20T05:34:09.690Z,2.50
2017-12-20T05:36:37.724Z,2.50
2017-12-20T05:39:05.728Z,2.60
2017-12-20T05:41:33.708Z,2.60
2017-12-20T05:44:01.759Z,2.60
2017-12-20T05:46:29.744Z,2.60
2017-12-20T05:48:58.515Z,2.70
2017-12-20T05:51:26.720Z,2.70
2017-12-20T05:53:54.697Z,2.70
2017-12-20T05:56:22.697Z,2.60
2017-12-20T05:58:51.449Z,2.70
2017-12-20T06:01:20.760Z,2.60
2017-12-20T06:03:48.744Z,2.50
2017-12-20T06:06:16.737Z,2.60
2017-12-20T06:08:44.732Z,2.60
2017-12-20T06:11:12.712Z,2.60
2017-12-20T06:13:40.735Z,2.60
2017-12-20T06:16:08.725Z,2.50
2017-12-20T06:18:36.722Z,2.60
2017-12-20T06:21:04.732Z,2.60
2017-12-20T06:23:32.726Z,2.60
2017-12-20T06:26:00.825Z,2.70
2017-12-20T06:28:28.796Z,2.70
2017-12-20T06:30:56.785Z,2.60
2017-12-20T06:33:24.780Z,2.70
2017-12-20T06:35:53.524Z,2.80
2017-12-20T06:38:21.560Z,2.70
2017-12-20T06:40:50.328Z,2.60
2017-12-20T06:43:18.312Z,2.50
2017-12-20T06:45:46.315Z,2.60
2017-12-20T06:48:14.288Z,2.70
2017-12-20T06:50:42.304Z,2.70
2017-12-20T06:53:11.055Z,2.70
2017-12-20T06:55:39.056Z,2.70
2017-12-20T06:58:07.052Z,2.80
2017-12-20T07:00:35.796Z,3.50
2017-12-20T07:03:04.964Z,2.60
2017-12-20T07:05:33.024Z,2.60
2017-12-20T07:08:01.004Z,2.60
2017-12-20T07:10:28.993Z,2.70
2017-12-20T07:12:56.987Z,2.60
2017-12-20T07:15:25.784Z,2.60
2017-12-20T07:17:53.773Z,2.50
2017-12-20T07:20:21.772Z,2.60
2017-12-20T07:22:50.528Z,2.70
2017-12-20T07:25:18.517Z,2.60
2017-12-20T07:27:46.505Z,2.60
2017-12-20T07:30:14.512Z,2.60
2017-12-20T07:32:43.256Z,2.70
2017-12-20T07:35:11.252Z,2.60
2017-12-20T07:37:39.244Z,2.70
2017-12-20T07:40:07.238Z,2.60
2017-12-20T07:42:35.277Z,2.70
2017-12-20T07:45:03.260Z,2.70
2017-12-20T07:47:31.241Z,2.70
2017-12-20T07:49:59.244Z,2.70
2017-12-20T07:52:27.241Z,2.70
2017-12-20T07:54:55.337Z,2.80
2017-12-20T07:57:23.348Z,2.80
2017-12-20T07:59:52.104Z,2.80
2017-12-20T08:02:20.096Z,2.80
2017-12-20T08:04:48.072Z,2.80
2017-12-20T08:07:16.093Z,2.90
2017-12-20T08:09:44.861Z,2.90
2017-12-20T08:12:12.847Z,2.90
2017-12-20T08:14:40.876Z,2.90
2017-12-20T08:17:08.860Z,2.90
2017-12-20T08:19:36.985Z,2.90
2017-12-20T08:22:04.972Z,2.90
2017-12-20T08:24:32.951Z,2.90
2017-12-20T08:27:00.948Z,2.80
2017-12-20T08:29:28.924Z,2.90
2017-12-20T08:31:56.936Z,2.90
2017-12-20T08:34:25.687Z,2.90
2017-12-20T08:36:53.672Z,2.80
2017-12-20T08:39:22.432Z,3.00
2017-12-20T08:41:50.420Z,2.90
2017-12-20T08:44:19.271Z,3.00
2017-12-20T08:46:47.251Z,3.00
2017-12-20T08:49:17.195Z,3.00
2017-12-20T08:51:46.551Z,3.00
2017-12-20T08:54:14.597Z,3.10
2017-12-20T08:56:42.924Z,3.00
2017-12-20T08:59:11.876Z,3.00
2017-12-20T09:01:39.878Z,2.90
2017-12-20T09:04:07.880Z,3.10
2017-12-20T09:06:36.629Z,3.10
2017-12-20T09:09:04.643Z,3.10
2017-12-20T09:11:32.640Z,3.10
2017-12-20T09:14:01.404Z,3.10
2017-12-20T09:16:30.038Z,3.10
2017-12-20T09:18:58.793Z,3.20
2017-12-20T09:21:26.796Z,3.10
2017-12-20T09:23:54.777Z,3.20
2017-12-20T09:26:22.769Z,3.20
2017-12-20T09:28:50.779Z,3.20
2017-12-20T09:31:19.527Z,3.20
2017-12-20T09:33:47.557Z,3.20
2017-12-20T09:36:16.308Z,3.20
2017-12-20T09:38:44.296Z,3.20
2017-12-20T09:41:12.293Z,3.20
2017-12-20T09:43:40.297Z,3.20
2017-12-20T09:46:08.276Z,3.30
2017-12-20T09:48:37.025Z,3.40
2017-12-20T09:51:05.049Z,3.30
2017-12-20T09:53:33.028Z,3.30
2017-12-20T09:56:01.019Z,3.30
2017-12-20T09:58:29.017Z,3.30
2017-12-20T10:00:57.764Z,3.30
2017-12-20T10:03:25.784Z,3.30
2017-12-20T10:05:53.776Z,3.30
2017-12-20T10:08:22.538Z,3.30
2017-12-20T10:10:50.524Z,3.30
2017-12-20T10:13:18.548Z,3.30
2017-12-20T10:15:46.580Z,3.30
2017-12-20T10:18:14.580Z,3.30
2017-12-20T10:20:42.569Z,3.40
2017-12-20T10:23:10.580Z,3.50
2017-12-20T10:25:38.562Z,3.50
2017-12-20T10:28:06.594Z,3.50
2017-12-20T10:30:34.571Z,3.40
2017-12-20T10:33:02.560Z,3.40
2017-12-20T10:35:30.559Z,3.40
2017-12-20T10:37:58.544Z,3.40
2017-12-20T10:40:26.572Z,3.50
2017-12-20T10:42:54.567Z,3.50
2017-12-20T10:45:22.545Z,3.50
2017-12-20T10:47:50.559Z,3.50
2017-12-20T10:50:18.544Z,3.50
2017-12-20T10:52:46.771Z,3.50
2017-12-20T10:55:15.136Z,3.50
2017-12-20T10:57:43.142Z,3.50
2017-12-20T11:00:11.900Z,3.50
2017-12-20T11:02:39.900Z,3.50
2017-12-20T11:05:07.904Z,3.50
2017-12-20T11:07:35.949Z,3.40
2017-12-20T11:10:03.960Z,3.50
2017-12-20T11:12:31.944Z,3.50
2017-12-20T11:15:00.120Z,3.60
2017-12-20T11:17:28.131Z,3.60
2017-12-20T11:19:56.115Z,3.70
2017-12-20T11:22:24.705Z,3.70
2017-12-20T11:24:53.464Z,3.60
2017-12-20T11:27:21.460Z,3.60
2017-12-20T11:29:49.483Z,3.60
2017-12-20T11:32:17.483Z,3.70
2017-12-20T11:34:45.554Z,3.70
2017-12-20T11:37:14.284Z,3.70
2017-12-20T11:39:42.297Z,3.70
2017-12-20T11:42:10.297Z,3.80
2017-12-20T11:44:39.073Z,3.80
2017-12-20T11:47:07.092Z,3.80
2017-12-20T11:49:35.089Z,3.80
2017-12-20T11:52:03.068Z,3.80
2017-12-20T11:54:31.068Z,3.80
2017-12-20T11:56:59.056Z,3.80
2017-12-20T11:59:27.080Z,3.80
2017-12-20T12:01:55.073Z,3.80
2017-12-20T12:04:23.848Z,3.80
2017-12-20T12:06:51.852Z,3.80
2017-12-20T12:09:19.832Z,3.80
2017-12-20T12:11:48.616Z,3.80
2017-12-20T12:14:16.600Z,3.70
2017-12-20T12:16:45.376Z,3.80
2017-12-20T12:19:13.388Z,3.70
2017-12-20T12:21:41.381Z,3.80
2017-12-20T12:24:09.535Z,3.80
2017-12-20T12:26:37.529Z,3.80
2017-12-20T12:29:06.279Z,3.80
2017-12-20T12:31:34.280Z,3.80
2017-12-20T12:34:02.276Z,3.80
2017-12-20T12:36:30.320Z,3.90
2017-12-20T12:38:59.081Z,3.90
2017-12-20T12:41:27.077Z,3.90
2017-12-20T12:43:55.100Z,3.90
2017-12-20T12:46:23.088Z,4.00
2017-12-20T12:48:51.112Z,4.00
2017-12-20T12:51:19.122Z,3.90
2017-12-20T12:53:47.108Z,4.00
2017-12-20T12:56:15.883Z,3.80
2017-12-20T12:58:44.687Z,3.90
2017-12-20T13:01:12.754Z,3.80
2017-12-20T13:03:41.073Z,3.90
2017-12-20T13:06:09.065Z,3.90
2017-12-20T13:08:37.847Z,3.90
2017-12-20T13:11:05.846Z,3.90
2017-12-20T13:13:33.872Z,4.00
2017-12-20T13:16:01.849Z,4.00
2017-12-20T13:18:29.831Z,4.00
2017-12-20T13:20:57.852Z,4.10
2017-12-20T13:23:25.851Z,4.00
2017-12-20T13:25:55.436Z,4.00
2017-12-20T13:28:23.424Z,4.00
2017-12-20T13:30:51.412Z,4.10
2017-12-20T13:33:19.435Z,4.00
2017-12-20T13:35:48.180Z,4.00
2017-12-20T13:38:16.218Z,3.90
2017-12-20T13:40:45.000Z,4.00
2017-12-20T13:43:13.001Z,3.90
2017-12-20T13:45:41.768Z,3.90
2017-12-20T13:48:09.764Z,3.90
2017-12-20T13:50:37.806Z,3.90
2017-12-20T13:53:05.797Z,3.90
2017-12-20T13:55:33.791Z,4.00
2017-12-20T13:58:02.558Z,3.90
2017-12-20T14:00:30.552Z,3.90
2017-12-20T14:02:58.580Z,4.00
2017-12-20T14:05:26.569Z,4.00
2017-12-20T14:07:55.330Z,4.00
2017-12-20T14:10:23.324Z,3.90
2017-12-20T14:12:51.320Z,3.90
2017-12-20T14:15:19.345Z,4.00
2017-12-20T14:17:47.349Z,4.00
2017-12-20T14:20:15.340Z,4.00
2017-12-20T14:22:43.354Z,4.00
2017-12-20T14:25:11.328Z,4.00
2017-12-20T14:27:39.331Z,4.00
2017-12-20T14:30:07.316Z,4.00
2017-12-20T14:32:36.076Z,4.10
2017-12-20T14:35:04.076Z,4.00
2017-12-20T14:37:32.074Z,4.00
2017-12-20T14:40:00.833Z,4.00
2017-12-20T14:42:29.595Z,4.00
2017-12-20T14:44:58.368Z,4.00
2017-12-20T14:47:26.357Z,4.00
2017-12-20T14:49:54.365Z,4.00
2017-12-20T14:52:22.385Z,4.00
2017-12-20T14:54:51.426Z,4.00
2017-12-20T14:57:19.460Z,4.00
2017-12-20T14:59:47.468Z,4.00
2017-12-20T15:02:15.459Z,4.00
2017-12-20T15:04:43.491Z,3.90
2017-12-20T15:07:12.258Z,3.90
2017-12-20T15:09:40.452Z,3.90
2017-12-20T15:12:09.337Z,3.90
2017-12-20T15:14:37.330Z,3.90
2017-12-20T15:17:05.320Z,4.00
2017-12-20T15:19:34.081Z,3.90
2017-12-20T15:22:02.071Z,3.80
2017-12-20T15:24:30.093Z,3.90
2017-12-20T15:26:58.857Z,3.90
2017-12-20T15:29:26.880Z,3.90
2017-12-20T15:31:55.636Z,4.00
2017-12-20T15:34:23.637Z,3.90
2017-12-20T15:36:51.640Z,4.00
2017-12-20T15:39:20.388Z,4.00
2017-12-20T15:41:48.433Z,3.90
2017-12-20T15:44:17.180Z,4.00
2017-12-20T15:46:45.189Z,4.00
2017-12-20T15:49:13.212Z,3.90
2017-12-20T15:51:41.212Z,4.00
2017-12-20T15:54:09.228Z,4.00
2017-12-20T15:56:37.219Z,4.00
2017-12-20T15:59:05.204Z,3.90
2017-12-20T16:01:33.227Z,4.00
2017-12-20T16:04:01.208Z,4.00
2017-12-20T16:06:29.373Z,4.00
2017-12-20T16:08:57.320Z,4.00
2017-12-20T16:11:25.319Z,4.00
2017-12-20T16:13:53.316Z,3.90
2017-12-20T16:16:22.073Z,3.90
2017-12-20T16:18:50.117Z,3.90
2017-12-20T16:21:18.112Z,3.90
2017-12-20T16:23:46.105Z,3.90
2017-12-20T16:26:14.107Z,3.90
2017-12-20T16:28:42.097Z,3.90
2017-12-20T16:31:10.252Z,3.80
2017-12-20T16:33:38.228Z,3.90
2017-12-20T16:36:06.208Z,3.90
2017-12-20T16:38:34.228Z,3.90
2017-12-20T16:41:02.204Z,3.80
2017-12-20T16:43:30.216Z,3.80
2017-12-20T16:45:58.973Z,3.80
2017-12-20T16:48:26.964Z,3.70
2017-12-20T16:50:54.968Z,3.70
2017-12-20T16:53:34.748Z,3.80
2017-12-20T16:56:03.647Z,3.60
2017-12-20T16:58:32.412Z,3.60
2017-12-20T17:01:00.394Z,3.60
2017-12-20T17:03:28.405Z,3.60
2017-12-20T17:05:56.401Z,3.60
2017-12-20T17:08:25.172Z,3.60
2017-12-20T17:10:53.171Z,3.60
2017-12-20T17:13:21.168Z,3.60
2017-12-20T17:15:49.946Z,3.60
2017-12-20T17:18:17.937Z,3.60
2017-12-20T17:20:45.962Z,3.60
2017-12-20T17:23:14.717Z,3.60
2017-12-20T17:25:42.736Z,3.50
2017-12-20T17:28:10.778Z,3.70
2017-12-20T17:30:38.777Z,3.60
2017-12-20T17:33:06.801Z,3.50
2017-12-20T17:35:35.108Z,3.50
2017-12-20T17:38:03.097Z,3.60
2017-12-20T17:40:31.473Z,3.60
2017-12-20T17:42:59.605Z,3.60
2017-12-20T17:45:27.616Z,3.60
2017-12-20T17:47:55.628Z,3.60
2017-12-20T17:50:23.648Z,3.70
2017-12-20T17:52:51.645Z,3.70
2017-12-20T17:55:20.400Z,3.60
2017-12-20T17:57:48.408Z,3.50
2017-12-20T18:00:16.396Z,3.60
2017-12-20T18:02:44.417Z,3.50
2017-12-20T18:05:12.456Z,3.50
2017-12-20T18:07:40.444Z,3.50
2017-12-20T18:10:08.445Z,3.60
2017-12-20T18:12:37.191Z,3.60
2017-12-20T18:15:05.331Z,3.50
2017-12-20T18:17:34.092Z,3.60
2017-12-20T18:20:03.612Z,3.60
2017-12-20T18:22:31.620Z,3.50
2017-12-20T18:25:00.394Z,3.60
2017-12-20T18:27:28.412Z,3.50
2017-12-20T18:29:57.180Z,3.50
2017-12-20T18:32:25.164Z,3.50
2017-12-20T18:34:53.166Z,3.50
2017-12-20T18:37:21.189Z,3.50
2017-12-20T18:39:49.299Z,3.50
2017-12-20T18:42:17.293Z,3.50
2017-12-20T18:44:45.317Z,3.50
2017-12-20T18:47:14.104Z,3.60
2017-12-20T18:49:42.167Z,3.50
2017-12-20T18:52:10.317Z,3.50
2017-12-20T18:54:39.109Z,3.60
2017-12-20T18:57:07.084Z,3.60
2017-12-20T18:59:35.092Z,3.60
2017-12-20T19:02:03.088Z,3.60
2017-12-20T19:04:31.216Z,3.60
2017-12-20T19:06:59.976Z,3.60
2017-12-20T19:09:27.977Z,3.60
2017-12-20T19:11:55.981Z,3.60
2017-12-20T19:14:24.728Z,3.60
2017-12-20T19:16:52.767Z,3.50
2017-12-20T19:19:22.065Z,3.60
2017-12-20T19:21:50.048Z,3.50
2017-12-20T19:24:18.051Z,3.60
2017-12-20T19:26:46.808Z,3.60
2017-12-20T19:29:14.872Z,3.60
2017-12-20T19:31:42.868Z,3.60
2017-12-20T19:34:10.851Z,3.60
2017-12-20T19:36:38.878Z,3.60
2017-12-20T19:39:07.644Z,3.60
2017-12-20T19:41:35.660Z,3.60
2017-12-20T19:44:04.424Z,3.60
2017-12-20T19:46:32.424Z,3.60
2017-12-20T19:49:00.420Z,3.50
2017-12-20T19:51:29.176Z,3.60
2017-12-20T19:53:57.195Z,3.60
2017-12-20T19:56:25.188Z,3.60
2017-12-20T19:58:53.945Z,3.60
2017-12-20T20:01:21.953Z,3.60
2017-12-20T20:03:49.940Z,3.60
2017-12-20T20:06:17.968Z,3.50
2017-12-20T20:08:45.968Z,3.50
2017-12-20T20:11:13.969Z,3.50
2017-12-20T20:13:41.986Z,3.50
2017-12-20T20:16:10.748Z,3.50
2017-12-20T20:18:39.536Z,3.50
2017-12-20T20:21:07.540Z,3.50
2017-12-20T20:23:35.551Z,3.60
2017-12-20T20:26:04.368Z,3.50
2017-12-20T20:28:32.369Z,3.40
2017-12-20T20:31:00.372Z,3.50
2017-12-20T20:33:28.365Z,3.50
2017-12-20T20:35:56.400Z,3.50
2017-12-20T20:38:25.156Z,3.50
2017-12-20T20:40:53.145Z,3.50
2017-12-20T20:43:21.149Z,3.50
2017-12-20T20:45:49.912Z,3.50
2017-12-20T20:48:17.956Z,3.50
2017-12-20T20:50:45.957Z,3.50
2017-12-20T20:53:15.007Z,3.50
2017-12-20T20:55:43.880Z,3.40
2017-12-20T20:58:11.872Z,3.40
2017-12-20T21:00:40.246Z,3.50
2017-12-20T21:03:08.248Z,3.50
2017-12-20T21:05:36.228Z,3.50
2017-12-20T21:08:04.226Z,3.50
2017-12-20T21:10:32.224Z,3.40
2017-12-20T21:13:00.236Z,3.40
2017-12-20T21:15:28.230Z,3.40
2017-12-20T21:17:56.376Z,3.40
2017-12-20T21:20:24.402Z,3.40
2017-12-20T21:22:52.880Z,3.40
2017-12-20T21:25:21.045Z,3.40
2017-12-20T21:27:49.036Z,3.40
2017-12-20T21:30:17.836Z,3.40
2017-12-20T21:32:46.613Z,3.40
2017-12-20T21:35:14.616Z,3.30
2017-12-20T21:37:43.412Z,3.30
2017-12-20T21:40:12.191Z,3.30
2017-12-20T21:42:40.180Z,3.30
2017-12-20T21:45:09.085Z,3.30
2017-12-20T21:47:37.077Z,3.30
2017-12-20T21:50:06.041Z,3.30
2017-12-20T21:52:34.316Z,3.20
2017-12-20T21:55:02.312Z,3.30
2017-12-20T21:57:30.329Z,3.30
2017-12-20T21:59:58.329Z,3.30
2017-12-20T22:02:27.116Z,3.40
2017-12-20T22:04:55.139Z,3.30
2017-12-20T22:07:23.135Z,3.40
2017-12-20T22:09:51.152Z,3.30
2017-12-20T22:12:19.164Z,3.30
2017-12-20T22:14:48.057Z,3.40
2017-12-20T22:17:16.188Z,3.40
2017-12-20T22:19:44.180Z,3.40
2017-12-20T22:22:12.225Z,3.40
2017-12-20T22:24:40.988Z,3.40
2017-12-20T22:27:09.016Z,3.30
2017-12-20T22:29:37.004Z,3.40
2017-12-20T22:32:05.012Z,3.40
2017-12-20T22:34:33.014Z,3.40
2017-12-20T22:37:01.011Z,3.40
2017-12-20T22:39:29.033Z,3.40
2017-12-20T22:41:57.027Z,3.40
2017-12-20T22:44:25.012Z,3.40
2017-12-20T22:46:53.036Z,3.50
2017-12-20T22:49:21.029Z,3.40
2017-12-20T22:51:49.058Z,3.40
2017-12-20T22:54:17.065Z,3.40
2017-12-20T22:56:45.287Z,3.40
2017-12-20T22:59:13.289Z,3.40
2017-12-20T23:01:42.995Z,3.50
2017-12-20T23:04:11.203Z,3.40
2017-12-20T23:06:40.144Z,3.50
2017-12-20T23:09:08.148Z,3.50
2017-12-20T23:11:36.159Z,3.50
2017-12-20T23:14:04.924Z,3.60
2017-12-20T23:16:33.137Z,3.50
2017-12-20T23:19:01.901Z,3.60
2017-12-20T23:21:29.892Z,3.50
2017-12-20T23:23:57.904Z,3.60
2017-12-20T23:26:26.673Z,3.50
2017-12-20T23:28:54.736Z,3.50
2017-12-20T23:31:22.689Z,3.60
2017-12-20T23:33:50.685Z,3.60
2017-12-20T23:36:19.136Z,3.60
2017-12-20T23:38:47.143Z,3.60
2017-12-20T23:41:15.888Z,3.50
2017-12-20T23:43:43.928Z,3.50
2017-12-20T23:46:12.691Z,3.60
2017-12-20T23:48:40.683Z,3.60
2017-12-20T23:51:08.847Z,3.50
2017-12-20T23:53:36.823Z,3.50
2017-12-20T23:56:04.820Z,3.50
2017-12-20T23:58:32.837Z,3.50
